Time;durP1;ratioP1;P1;durP2;ratioP2;P2;SDS_P1;SDS_P2;PMS_P1;PMS_P2;Temp;Humidity;BMP_temperature;BMP_pressure;BME280_temperature;BME280_humidity;BME280_pressure;Samples;Min_cycle;Max_cycle;Signal;HPM_P1;HPM_P2
2022/02/23 00:01:47;;;;;;;4.20;2.17;;;;;;;9.84;68.59;98090.91;8351324;28;20239;-69
2022/02/23 00:05:50;;;;;;;6.50;2.43;;;;;;;10.00;67.84;98098.94;8352044;28;20236;-69
2022/02/23 00:09:55;;;;;;;6.13;2.53;;;;;;;9.92;68.25;98095.81;8351648;28;20512;-69
2022/02/23 00:13:57;;;;;;;6.13;2.30;;;;;;;9.90;68.43;98095.00;8351552;28;20239;-69
2022/02/23 00:18:00;;;;;;;6.03;2.20;;;;;;;9.79;69.17;98106.63;8351127;28;20232;-69
2022/02/23 00:22:04;;;;;;;4.70;1.83;;;;;;;9.79;68.63;98113.56;8350737;28;20235;-69
2022/02/23 00:26:08;;;;;;;6.30;2.03;;;;;;;9.63;69.47;98110.69;8350924;28;20238;-68
2022/02/23 00:30:12;;;;;;;7.33;2.20;;;;;;;9.70;68.93;98132.00;8351063;28;20236;-68
2022/02/23 00:34:15;;;;;;;4.57;2.20;;;;;;;9.66;70.01;98158.91;8350997;28;20232;-67
2022/02/23 00:38:18;;;;;;;4.60;1.73;;;;;;;9.75;70.29;98176.66;8350736;28;20228;-67
2022/02/23 00:42:25;;;;;;;10.20;2.53;;;;;;;9.59;70.94;98200.50;8350865;28;20373;-67
2022/02/23 00:46:28;;;;;;;4.97;1.50;;;;;;;9.53;70.36;98192.94;8350567;28;20232;-68
2022/02/23 00:50:30;;;;;;;3.53;1.60;;;;;;;9.64;69.25;98202.06;8350422;28;20228;-69
2022/02/23 00:54:34;;;;;;;2.30;1.00;;;;;;;9.62;66.25;98212.47;8349944;28;20227;-68
2022/02/23 00:58:38;;;;;;;4.07;1.10;;;;;;;9.76;64.88;98205.03;8350056;28;20240;-69
2022/02/23 01:02:41;;;;;;;2.23;1.10;;;;;;;9.74;64.55;98208.56;8350006;28;20232;-68
2022/02/23 01:06:44;;;;;;;3.33;1.37;;;;;;;9.69;64.76;98226.00;8349842;28;20248;-68
2022/02/23 01:10:47;;;;;;;3.07;1.00;;;;;;;9.58;63.81;98229.81;8350119;28;20258;-67
2022/02/23 01:14:52;;;;;;;3.77;1.13;;;;;;;9.54;63.81;98238.59;8349803;28;20539;-68
2022/02/23 01:18:54;;;;;;;3.57;1.10;;;;;;;9.77;63.41;98237.75;8349664;28;20468;-68
2022/02/23 01:22:59;;;;;;;3.70;1.17;;;;;;;9.74;63.65;98239.63;8349885;28;20232;-68
2022/02/23 01:27:02;;;;;;;3.73;1.37;;;;;;;9.55;64.13;98244.59;8349671;28;20256;-67
2022/02/23 01:31:07;;;;;;;4.33;1.27;;;;;;;9.68;63.84;98245.84;8349225;28;20266;-67
2022/02/23 01:35:10;;;;;;;2.13;1.00;;;;;;;9.65;63.48;98238.19;8348591;28;20232;-68
2022/02/23 01:39:13;;;;;;;4.93;1.43;;;;;;;9.70;63.57;98264.75;8349475;28;20390;-68
2022/02/23 01:43:16;;;;;;;2.37;1.07;;;;;;;9.60;63.72;98271.16;8349439;28;20240;-67
2022/02/23 01:47:20;;;;;;;2.73;1.17;;;;;;;9.64;63.92;98282.22;8350284;28;20299;-68
2022/02/23 01:51:23;;;;;;;3.53;1.30;;;;;;;9.70;63.51;98290.59;8350752;28;20207;-67
2022/02/23 01:55:26;;;;;;;2.30;1.40;;;;;;;9.69;63.83;98293.22;8350548;28;20204;-67
2022/02/23 01:59:29;;;;;;;3.97;1.43;;;;;;;9.79;63.42;98303.22;8350583;28;20231;-68
2022/02/23 02:03:33;;;;;;;3.57;1.63;;;;;;;9.55;62.98;98311.81;8347679;28;20231;-67
2022/02/23 02:07:36;;;;;;;4.50;1.60;;;;;;;9.62;62.53;98304.72;8348200;28;20240;-68
2022/02/23 02:11:39;;;;;;;4.70;1.53;;;;;;;9.51;62.54;98316.25;8347975;28;20236;-67
2022/02/23 02:15:43;;;;;;;4.97;1.57;;;;;;;9.57;62.23;98322.97;8347959;28;20243;-67
2022/02/23 02:19:47;;;;;;;3.80;1.70;;;;;;;9.48;62.56;98343.94;8347819;28;20240;-67
2022/02/23 02:23:52;;;;;;;4.37;1.53;;;;;;;9.50;62.07;98357.66;8347949;28;20244;-67
2022/02/23 02:27:55;;;;;;;4.87;1.60;;;;;;;9.39;63.02;98369.22;8347642;28;20235;-67
2022/02/23 02:31:58;;;;;;;3.10;1.40;;;;;;;9.34;62.67;98365.09;8347679;28;20258;-67
2022/02/23 02:36:03;;;;;;;4.60;1.77;;;;;;;9.32;62.98;98385.81;8347647;28;20235;-67
2022/02/23 02:40:10;;;;;;;4.97;1.70;;;;;;;9.24;62.43;98393.00;8347628;28;20227;-67
2022/02/23 02:44:14;;;;;;;7.00;1.80;;;;;;;9.09;62.32;98385.72;8347590;28;20232;-67
2022/02/23 02:48:17;;;;;;;5.87;1.70;;;;;;;8.97;62.70;98397.28;8354073;28;20243;-67
2022/02/23 02:52:20;;;;;;;5.90;2.10;;;;;;;8.84;62.59;98408.91;8354224;28;20227;-68
2022/02/23 02:56:25;;;;;;;6.03;2.07;;;;;;;9.13;61.78;98418.31;8354023;28;20228;-68
2022/02/23 03:00:28;;;;;;;6.07;1.60;;;;;;;9.27;60.99;98435.97;8353757;28;20231;-67
2022/02/23 03:04:31;;;;;;;5.30;1.60;;;;;;;9.09;61.42;98432.22;8353215;28;20255;-68
2022/02/23 03:08:34;;;;;;;7.07;1.90;;;;;;;9.16;60.70;98457.00;8353601;28;20239;-67
2022/02/23 03:12:39;;;;;;;6.47;1.80;;;;;;;9.17;60.50;98474.19;8353529;28;20235;-68
2022/02/23 03:16:42;;;;;;;7.43;1.70;;;;;;;9.25;60.54;98485.13;8353449;28;20239;-67
2022/02/23 03:20:45;;;;;;;6.30;1.77;;;;;;;8.96;61.34;98498.91;8352732;28;20243;-67
2022/02/23 03:24:47;;;;;;;6.33;2.13;;;;;;;9.28;60.12;98500.53;8353303;28;20547;-67
2022/02/23 03:28:52;;;;;;;5.13;1.77;;;;;;;9.47;58.85;98502.56;8352907;28;20285;-67
2022/02/23 03:32:55;;;;;;;6.50;2.10;;;;;;;9.21;59.16;98501.63;8352966;28;20235;-67
2022/02/23 03:36:58;;;;;;;7.80;2.30;;;;;;;9.42;58.81;98505.28;8352545;28;20303;-67
2022/02/23 03:41:01;;;;;;;5.17;1.90;;;;;;;9.42;58.42;98515.63;8352572;28;20232;-67
2022/02/23 03:45:06;;;;;;;6.87;2.17;;;;;;;9.44;58.30;98521.59;8352644;28;20413;-67
2022/02/23 03:49:09;;;;;;;7.43;2.27;;;;;;;9.36;58.29;98524.41;8352302;28;20232;-67
2022/02/23 03:53:17;;;;;;;8.53;2.53;;;;;;;9.39;58.69;98528.66;8352349;28;20269;-67
2022/02/23 03:57:20;;;;;;;9.27;2.67;;;;;;;9.38;58.49;98548.47;8351420;28;20228;-67
2022/02/23 04:01:24;;;;;;;7.60;2.10;;;;;;;9.31;58.51;98564.22;8352116;28;20240;-67
2022/02/23 04:05:27;;;;;;;8.17;2.33;;;;;;;9.30;58.57;98565.13;8351877;28;20231;-67
2022/02/23 04:09:30;;;;;;;7.27;2.13;;;;;;;9.29;58.09;98564.28;8351605;28;20251;-67
2022/02/23 04:13:35;;;;;;;6.57;2.40;;;;;;;9.16;58.42;98573.28;8351152;28;20519;-67
2022/02/23 04:17:39;;;;;;;7.87;2.50;;;;;;;9.12;58.40;98580.28;8351622;28;20236;-68
2022/02/23 04:21:42;;;;;;;7.27;2.57;;;;;;;9.02;58.29;98598.66;8351651;28;20239;-67
2022/02/23 04:25:45;;;;;;;6.37;2.20;;;;;;;9.05;58.67;98591.66;8351291;28;20251;-67
2022/02/23 04:29:48;;;;;;;7.27;2.40;;;;;;;9.09;58.36;98595.00;8351152;28;20243;-67
2022/02/23 04:33:53;;;;;;;8.90;2.37;;;;;;;9.00;58.83;98612.47;8351733;28;20262;-67
2022/02/23 04:37:56;;;;;;;12.70;2.50;;;;;;;9.01;58.68;98621.06;8351429;28;20553;-67
2022/02/23 04:41:59;;;;;;;7.67;2.33;;;;;;;8.88;58.95;98622.28;8351071;28;20239;-67
2022/02/23 04:46:03;;;;;;;8.57;2.20;;;;;;;8.84;59.23;98631.84;8350983;28;20232;-67
2022/02/23 04:50:12;;;;;;;6.93;2.23;;;;;;;8.84;58.73;98641.34;8350822;28;20252;-67
2022/02/23 04:54:15;;;;;;;7.33;2.43;;;;;;;8.77;58.84;98651.81;8350263;28;20227;-67
2022/02/23 04:58:18;;;;;;;8.57;2.57;;;;;;;8.77;58.45;98654.41;8350034;28;20232;-67
2022/02/23 05:02:21;;;;;;;9.87;2.77;;;;;;;8.75;58.54;98653.59;8349921;28;20228;-67
2022/02/23 05:06:25;;;;;;;9.20;3.20;;;;;;;8.77;58.46;98654.41;8350004;28;20231;-67
2022/02/23 05:10:29;;;;;;;19.13;8.57;;;;;;;8.70;58.02;98652.00;8348579;28;20232;-67
2022/02/23 05:14:32;;;;;;;10.73;3.50;;;;;;;8.66;58.56;98653.81;8349199;28;20431;-68
2022/02/23 05:18:36;;;;;;;14.30;3.70;;;;;;;8.59;59.07;98663.47;8349493;28;20236;-67
2022/02/23 05:22:45;;;;;;;7.27;2.70;;;;;;;8.67;58.19;98668.44;8349563;28;20243;-67
2022/02/23 05:26:48;;;;;;;9.67;3.07;;;;;;;8.63;58.41;98690.06;8349377;28;20243;-67
2022/02/23 05:30:51;;;;;;;10.53;3.10;;;;;;;8.58;58.46;98694.50;8349367;28;20244;-67
2022/02/23 05:34:54;;;;;;;12.57;3.53;;;;;;;8.49;58.91;98710.19;8348520;28;20224;-67
2022/02/23 05:38:58;;;;;;;9.27;2.80;;;;;;;8.51;58.68;98711.88;8349039;28;20424;-67
2022/02/23 05:43:01;;;;;;;14.10;3.77;;;;;;;8.36;59.20;98731.13;8349325;28;20231;-67
2022/02/23 05:47:04;;;;;;;12.33;3.47;;;;;;;8.28;59.73;98735.63;8348763;28;20232;-67
2022/02/23 05:51:25;;;;;;;12.53;3.37;;;;;;;8.33;58.52;98749.25;8348548;28;20238;-67
2022/02/23 05:55:32;;;;;;;14.17;3.50;;;;;;;8.40;58.83;98762.88;8348715;28;20406;-67
2022/02/23 05:59:35;;;;;;;13.33;3.70;;;;;;;8.50;58.53;98759.22;8348317;28;20237;-67
2022/02/23 06:03:39;;;;;;;13.43;4.07;;;;;;;8.52;58.75;98772.94;8347211;28;20228;-67
2022/02/23 06:07:42;;;;;;;15.40;3.63;;;;;;;8.50;58.87;98782.44;8347174;28;20236;-67
2022/02/23 06:11:47;;;;;;;13.30;3.40;;;;;;;8.63;58.48;98785.59;8347018;28;20398;-67
2022/02/23 06:15:52;;;;;;;12.87;3.50;;;;;;;8.58;58.89;98783.09;8347013;28;20424;-67
2022/02/23 06:19:55;;;;;;;11.80;3.67;;;;;;;8.59;58.44;98802.06;8343513;28;20294;-69
2022/02/23 06:23:58;;;;;;;12.73;3.60;;;;;;;8.59;58.46;98802.91;8347536;28;20241;-67
2022/02/23 06:28:03;;;;;;;16.03;4.00;;;;;;;8.63;58.74;98808.00;8347475;28;20247;-68
2022/02/23 06:32:07;;;;;;;14.07;4.00;;;;;;;8.68;58.30;98809.59;8347161;28;20236;-67
2022/02/23 06:36:11;;;;;;;10.93;3.53;;;;;;;8.68;58.55;98816.47;8347435;28;20539;-67
2022/02/23 06:40:14;;;;;;;15.23;3.90;;;;;;;8.72;57.74;98820.66;8347279;28;20232;-67
2022/02/23 06:44:21;;;;;;;16.20;3.83;;;;;;;8.87;57.87;98820.34;8347550;28;20232;-67
2022/02/23 06:48:24;;;;;;;16.77;3.67;;;;;;;9.16;56.77;98826.53;8347337;28;20232;-67
2022/02/23 06:52:29;;;;;;;14.53;3.83;;;;;;;9.47;56.01;98834.34;8347273;28;20238;-67
2022/02/23 06:56:32;;;;;;;14.20;4.10;;;;;;;9.70;55.01;98835.47;8346883;28;20231;-68
2022/02/23 07:00:36;;;;;;;14.23;4.03;;;;;;;9.87;54.83;98843.63;8347161;28;20318;-68
2022/02/23 07:04:40;;;;;;;14.17;3.63;;;;;;;9.66;54.77;98839.88;8346979;28;20232;-67
2022/02/23 07:08:45;;;;;;;14.23;4.07;;;;;;;10.00;54.65;98851.91;8346787;28;20235;-67
2022/02/23 07:12:49;;;;;;;11.10;3.23;;;;;;;10.30;53.54;98851.91;8346892;28;20338;-67
2022/02/23 07:16:53;;;;;;;12.93;3.37;;;;;;;10.73;53.11;98861.03;8347089;28;20232;-67
2022/02/23 07:20:56;;;;;;;11.27;3.70;;;;;;;10.75;51.79;98878.19;8346837;28;20232;-67
2022/02/23 07:24:59;;;;;;;10.73;3.90;;;;;;;10.88;52.73;98886.47;8346849;28;20236;-67
2022/02/23 07:29:02;;;;;;;18.43;3.80;;;;;;;11.23;51.74;98888.81;8346666;28;20543;-68
2022/02/23 07:33:09;;;;;;;11.27;3.80;;;;;;;11.17;51.70;98896.81;8349721;28;20228;-67
2022/02/23 07:37:14;;;;;;;15.00;4.93;;;;;;;11.23;52.24;98899.19;8352839;28;20418;-67
2022/02/23 07:41:22;;;;;;;14.60;4.53;;;;;;;11.29;51.43;98910.25;8352487;28;20232;-67
2022/02/23 07:45:45;;;;;;;10.57;3.77;;;;;;;11.24;51.25;98916.47;8352046;28;20251;-67
2022/02/23 07:49:50;;;;;;;16.47;4.40;;;;;;;11.65;50.60;98924.63;8352582;28;20232;-67
2022/02/23 07:53:54;;;;;;;17.43;4.30;;;;;;;11.78;49.91;98928.50;8351937;28;20228;-67
2022/02/23 07:57:58;;;;;;;16.23;4.50;;;;;;;12.09;50.44;98937.88;8352125;28;20411;-67
2022/02/23 08:02:01;;;;;;;16.87;4.50;;;;;;;11.88;50.39;98940.28;8351697;28;20228;-67
2022/02/23 08:06:06;;;;;;;13.70;4.07;;;;;;;12.60;49.25;98942.06;8351836;28;20231;-67
2022/02/23 08:10:09;;;;;;;15.43;4.10;;;;;;;12.45;49.68;98938.31;8351462;28;20235;-67
2022/02/23 08:14:12;;;;;;;15.90;4.20;;;;;;;13.04;47.96;98949.97;8351531;28;20228;-67
2022/02/23 08:22:37;;;;;;;23.37;5.30;;;;;;;13.18;47.40;98959.84;8351118;28;20232;-68
2022/02/23 08:26:43;;;;;;;14.17;4.00;;;;;;;13.38;47.17;98966.03;8351104;28;20243;-67
2022/02/23 08:30:47;;;;;;;17.90;4.27;;;;;;;13.60;46.40;98972.06;8350918;28;20431;-67
2022/02/23 08:34:51;;;;;;;16.03;4.30;;;;;;;14.10;45.90;98964.81;8351108;28;20565;-67
2022/02/23 08:38:58;;;;;;;15.00;4.57;;;;;;;14.63;44.20;98970.31;8351133;28;20231;-68
2022/02/23 08:43:01;;;;;;;16.87;4.60;;;;;;;14.70;43.90;98970.88;8350636;28;20232;-68
2022/02/23 08:47:06;;;;;;;13.63;4.40;;;;;;;14.88;43.47;98979.63;8350492;28;20232;-68
2022/02/23 08:51:09;;;;;;;16.17;4.60;;;;;;;15.30;42.85;98993.34;8350768;28;20293;-67
2022/02/23 08:55:14;;;;;;;17.50;4.90;;;;;;;14.72;43.11;99005.56;8350868;28;20224;-67
2022/02/23 08:59:17;;;;;;;20.07;4.53;;;;;;;13.97;44.93;99003.53;8350505;28;20223;-67
2022/02/23 09:03:22;;;;;;;14.70;4.23;;;;;;;13.54;45.88;99008.75;8350046;28;20232;-67
2022/02/23 09:07:25;;;;;;;18.30;4.37;;;;;;;13.90;45.12;99010.78;8350367;28;20243;-67
2022/02/23 09:11:29;;;;;;;13.90;4.40;;;;;;;14.09;45.01;99010.88;8350112;28;20232;-67
2022/02/23 09:15:34;;;;;;;20.30;4.87;;;;;;;13.35;46.46;99013.00;8349315;28;20228;-67
2022/02/23 09:19:38;;;;;;;16.33;4.57;;;;;;;13.14;46.34;99015.47;8349700;28;20301;-67
2022/02/23 09:23:41;;;;;;;14.20;4.67;;;;;;;12.48;46.72;99023.09;8349811;28;20235;-67
2022/02/23 09:27:45;;;;;;;17.37;4.53;;;;;;;13.05;45.60;99028.81;8349583;28;20262;-67
2022/02/23 09:31:48;;;;;;;14.07;3.60;;;;;;;13.68;44.53;99016.00;8348776;28;20239;-66
2022/02/23 09:35:51;;;;;;;14.73;4.07;;;;;;;15.16;42.74;99015.72;8348539;28;20256;-67
2022/02/23 09:39:54;;;;;;;13.23;3.97;;;;;;;15.87;40.95;99008.91;8349087;28;20323;-67
2022/02/23 09:43:59;;;;;;;15.63;4.40;;;;;;;16.13;39.20;99018.91;8348624;28;20227;-67
2022/02/23 09:48:02;;;;;;;9.40;2.83;;;;;;;16.96;56.03;99012.03;8348179;28;20298;-64
2022/02/23 09:52:07;;;;;;;14.27;3.70;;;;;;;17.43;42.63;99026.03;8347769;28;20255;-64
2022/02/23 09:56:09;;;;;;;12.80;4.00;;;;;;;17.29;40.64;99018.13;8347477;28;20232;-64
2022/02/23 10:00:15;;;;;;;10.80;3.60;;;;;;;18.32;37.49;99014.88;8346727;28;20244;-68
2022/02/23 10:04:20;;;;;;;11.83;3.43;;;;;;;18.59;35.23;99004.50;8348338;28;20238;-66
2022/02/23 10:08:32;;;;;;;10.10;3.30;;;;;;;19.04;35.95;98992.16;8348186;28;20240;-66
2022/02/23 10:12:41;;;;;;;16.67;4.60;;;;;;;18.74;36.77;98995.69;8347594;28;20436;-66
2022/02/23 10:16:47;;;;;;;11.53;3.97;;;;;;;19.10;34.59;98997.00;8348094;28;20236;-67
2022/02/23 10:20:51;;;;;;;10.83;3.70;;;;;;;19.13;35.79;98999.44;8347897;28;20247;-67
2022/02/23 10:24:58;;;;;;;13.77;4.07;;;;;;;18.84;35.45;99009.13;8347622;28;20531;-67
2022/02/23 10:29:02;;;;;;;11.57;3.60;;;;;;;19.26;31.97;99009.16;8347962;28;20236;-66
2022/02/23 10:33:18;;;;;;;11.67;3.67;;;;;;;19.40;35.33;99017.00;8347815;28;20543;-66
2022/02/23 10:37:37;;;;;;;9.20;3.03;;;;;;;19.16;32.04;99011.53;8347262;28;20231;-65
2022/02/23 10:41:44;;;;;;;8.20;3.10;;;;;;;19.23;32.34;99010.19;8347999;28;20243;-67
2022/02/23 10:45:51;;;;;;;9.93;3.40;;;;;;;19.27;32.62;99005.59;8347587;28;20236;-66
2022/02/23 10:50:01;;;;;;;10.57;3.13;;;;;;;19.22;32.23;99005.88;8347398;28;20233;-66
2022/02/23 10:54:06;;;;;;;12.37;3.53;;;;;;;19.24;31.43;99005.78;8347218;28;20291;-67
2022/02/23 10:58:09;;;;;;;10.10;3.20;;;;;;;19.24;30.29;99003.16;8347478;28;20229;-67
2022/02/23 11:02:12;;;;;;;13.87;3.17;;;;;;;19.37;32.21;99001.44;8347468;28;20231;-67
2022/02/23 11:06:16;;;;;;;8.73;3.10;;;;;;;19.41;32.31;99008.19;8348431;28;20257;-67
2022/02/23 11:10:20;;;;;;;9.33;2.90;;;;;;;19.48;32.70;98995.50;8352987;28;20228;-65
2022/02/23 11:14:23;;;;;;;8.47;2.40;;;;;;;19.41;33.06;99002.91;8353404;28;20232;-65
2022/02/23 11:18:28;;;;;;;10.40;3.10;;;;;;;19.22;33.83;98995.38;8352970;28;20235;-65
2022/02/23 11:22:33;;;;;;;11.57;2.80;;;;;;;19.42;33.71;98998.50;8352061;28;20253;-65
2022/02/23 11:26:38;;;;;;;9.67;2.63;;;;;;;19.35;33.13;98990.19;8352959;28;20538;-65
2022/02/23 11:30:42;;;;;;;11.63;2.77;;;;;;;19.17;32.05;98986.94;8352851;28;20305;-65
2022/02/23 11:34:47;;;;;;;9.37;3.27;;;;;;;18.07;28.76;98986.66;8352724;28;20297;-65
2022/02/23 11:38:53;;;;;;;8.97;2.93;;;;;;;18.17;28.38;98977.31;8351310;28;20235;-65
2022/02/23 11:42:56;;;;;;;12.73;3.00;;;;;;;17.61;30.05;98986.66;8352726;28;20553;-64
2022/02/23 11:47:01;;;;;;;10.87;2.93;;;;;;;17.27;29.35;98981.56;8352164;28;20238;-64
2022/02/23 11:51:06;;;;;;;8.47;3.03;;;;;;;17.68;30.68;98972.28;8351620;28;20570;-65
2022/02/23 11:55:14;;;;;;;9.73;2.60;;;;;;;17.34;30.72;98972.44;8351955;28;20289;-64
2022/02/23 11:59:46;;;;;;;11.73;2.70;;;;;;;17.52;28.94;98961.84;8352050;28;20228;-65
2022/02/23 12:04:12;;;;;;;10.97;2.80;;;;;;;17.16;30.29;98965.59;8344116;28;20232;-65
2022/02/23 12:08:40;;;;;;;8.77;2.60;;;;;;;16.85;29.60;98956.81;8352059;28;20291;-65
2022/02/23 12:12:46;;;;;;;10.80;2.97;;;;;;;16.55;29.18;98948.81;8344682;28;20238;-64
2022/02/23 12:16:55;;;;;;;8.93;2.90;;;;;;;17.05;29.60;98942.63;8351604;28;20239;-65
2022/02/23 12:20:59;;;;;;;9.93;2.60;;;;;;;17.18;30.12;98943.63;8351446;28;20236;-64
2022/02/23 12:25:04;;;;;;;10.40;2.90;;;;;;;17.16;30.45;98936.81;8351508;28;20238;-65
2022/02/23 12:29:10;;;;;;;10.13;2.80;;;;;;;17.26;28.40;98932.72;8351346;28;20433;-65
2022/02/23 12:33:15;;;;;;;6.80;2.30;;;;;;;17.10;29.13;98929.31;8351114;28;20243;-65
2022/02/23 12:37:18;;;;;;;6.17;2.23;;;;;;;17.04;28.40;98924.41;8351371;28;20228;-65
2022/02/23 12:41:22;;;;;;;6.67;2.33;;;;;;;17.63;31.24;98914.94;8350838;28;20268;-65
2022/02/23 12:45:29;;;;;;;6.87;1.77;;;;;;;17.33;28.38;98913.13;8350358;28;20228;-64
2022/02/23 12:49:36;;;;;;;6.40;2.00;;;;;;;17.31;28.09;98907.16;8317307;28;20229;-65
2022/02/23 12:53:42;;;;;;;7.80;2.20;;;;;;;17.24;28.88;98913.66;8317429;28;20241;-66
2022/02/23 12:57:52;;;;;;;5.27;1.80;;;;;;;17.41;27.99;98904.00;8317725;28;20233;-67
2022/02/23 13:01:58;;;;;;;8.73;2.23;;;;;;;17.18;28.55;98904.38;8325951;28;20526;-68
2022/02/23 13:06:01;;;;;;;7.70;2.37;;;;;;;17.54;28.83;98903.19;8350192;28;20414;-68
2022/02/23 13:10:07;;;;;;;11.10;2.43;;;;;;;17.61;28.50;98882.75;8349879;28;20231;-68
2022/02/23 13:14:12;;;;;;;5.87;2.03;;;;;;;17.75;28.22;98882.75;8349801;28;20547;-68
2022/02/23 13:18:16;;;;;;;6.10;1.90;;;;;;;17.81;27.23;98885.97;8349736;28;20330;-68
2022/02/23 13:22:22;;;;;;;7.33;2.40;;;;;;;17.42;28.27;98884.72;8349803;28;20259;-68
2022/02/23 13:26:29;;;;;;;8.80;2.43;;;;;;;17.71;28.54;98876.03;8349551;28;20243;-68
2022/02/23 13:30:32;;;;;;;8.37;2.73;;;;;;;17.50;28.59;98888.59;8348115;28;20231;-68
2022/02/23 13:34:38;;;;;;;8.43;2.37;;;;;;;17.88;28.44;98876.84;8348018;28;20232;-68
2022/02/23 13:38:42;;;;;;;8.17;2.30;;;;;;;17.58;28.53;98875.91;8346007;28;20235;-68
2022/02/23 13:42:46;;;;;;;8.83;2.47;;;;;;;17.98;29.71;98870.09;8348207;28;20238;-67
2022/02/23 13:46:53;;;;;;;9.37;2.30;;;;;;;17.81;27.02;98859.75;8347880;28;20516;-68
2022/02/23 13:50:57;;;;;;;6.33;2.27;;;;;;;18.10;27.82;98865.88;8348051;28;20232;-68
2022/02/23 13:55:11;;;;;;;7.10;2.50;;;;;;;17.98;27.64;98864.88;8344945;28;20535;-68
2022/02/23 13:59:16;;;;;;;6.33;2.10;;;;;;;17.96;27.25;98864.94;8347583;28;20235;-67
2022/02/23 14:03:21;;;;;;;6.60;2.13;;;;;;;17.98;27.07;98860.47;8346228;28;20224;-67
2022/02/23 14:07:26;;;;;;;5.27;2.07;;;;;;;18.06;27.21;98849.50;8344030;28;20444;-68
2022/02/23 14:11:33;;;;;;;6.67;2.40;;;;;;;18.75;26.71;98850.47;8344259;28;20438;-70
2022/02/23 14:15:37;;;;;;;8.00;2.17;;;;;;;18.20;26.26;98839.94;8338101;28;20224;-71
2022/02/23 14:19:42;;;;;;;6.83;2.23;;;;;;;18.02;26.12;98841.94;8344742;28;20228;-70
2022/02/23 14:23:54;;;;;;;7.77;2.33;;;;;;;18.16;27.21;98834.06;8346102;28;20428;-70
2022/02/23 14:27:59;;;;;;;8.03;1.87;;;;;;;17.97;26.08;98822.09;8344198;28;20299;-71
2022/02/23 14:32:16;;;;;;;5.77;2.13;;;;;;;17.98;26.05;98826.38;8347005;28;20258;-70
2022/02/23 14:36:22;;;;;;;7.73;2.37;;;;;;;17.82;26.06;98814.28;8347173;28;20247;-70
2022/02/23 14:40:29;;;;;;;4.73;1.73;;;;;;;17.90;26.49;98812.91;8347924;28;20224;-70
2022/02/23 14:44:33;;;;;;;6.60;2.23;;;;;;;17.84;26.03;98809.78;8349211;28;20243;-70
2022/02/23 14:48:36;;;;;;;8.30;2.30;;;;;;;17.65;25.89;98812.66;8357837;28;20240;-70
2022/02/23 14:52:43;;;;;;;6.83;2.30;;;;;;;17.73;27.13;98799.97;8357781;28;20240;-70
2022/02/23 14:56:48;;;;;;;7.50;2.50;;;;;;;17.69;28.53;98807.19;8357872;28;20242;-69
2022/02/23 15:00:52;;;;;;;8.07;2.47;;;;;;;17.45;28.14;98796.38;8358040;28;20298;-70
2022/02/23 15:04:55;;;;;;;9.30;2.83;;;;;;;17.45;27.95;98806.84;8358375;28;20350;-70
2022/02/23 15:08:58;;;;;;;8.03;2.17;;;;;;;17.26;27.82;98806.25;8357716;28;20573;-71
2022/02/23 15:13:06;;;;;;;6.40;2.27;;;;;;;17.45;27.91;98800.78;8357250;28;20295;-70
2022/02/23 15:17:14;;;;;;;7.83;2.47;;;;;;;17.11;28.44;98797.50;8356124;28;20234;-70
2022/02/23 15:21:20;;;;;;;10.70;3.00;;;;;;;16.86;29.26;98798.09;8355713;28;20224;-70
2022/02/23 15:25:25;;;;;;;8.60;2.53;;;;;;;16.68;28.99;98799.91;8354760;28;20235;-71
2022/02/23 15:29:30;;;;;;;8.07;2.60;;;;;;;16.64;29.11;98794.03;8356612;28;20231;-71
2022/02/23 15:33:36;;;;;;;7.53;2.67;;;;;;;16.33;30.04;98792.25;8355923;28;20581;-70
2022/02/23 15:37:40;;;;;;;8.30;3.00;;;;;;;15.72;30.54;98793.75;8356654;28;20238;-70
2022/02/23 15:41:43;;;;;;;10.23;2.97;;;;;;;16.11;30.00;98793.44;8357269;28;20417;-70
2022/02/23 15:45:47;;;;;;;5.97;1.90;;;;;;;15.62;30.53;98788.16;8356820;28;20327;-71
2022/02/23 15:49:50;;;;;;;10.50;2.77;;;;;;;15.57;30.86;98785.81;8357085;28;20236;-71
2022/02/23 15:53:53;;;;;;;26.93;16.10;;;;;;;15.52;31.40;98782.56;8353371;28;20239;-70
2022/02/23 15:57:57;;;;;;;12.80;5.10;;;;;;;15.34;31.67;98778.28;8352072;28;20534;-71
2022/02/23 16:02:01;;;;;;;9.20;3.30;;;;;;;15.21;31.93;98776.31;8352120;28;20232;-71
2022/02/23 16:06:04;;;;;;;9.10;2.80;;;;;;;15.04;32.63;98771.06;8351896;28;20232;-71
2022/02/23 16:10:08;;;;;;;8.10;2.77;;;;;;;14.94;32.97;98762.03;8351652;28;20228;-71
2022/02/23 16:14:24;;;;;;;7.67;2.47;;;;;;;14.77;32.69;98760.25;8351561;28;20274;-67
2022/02/23 16:18:29;;;;;;;9.33;3.00;;;;;;;14.61;33.23;98755.78;8351317;28;20225;-68
2022/02/23 16:22:31;;;;;;;8.53;2.43;;;;;;;14.55;34.11;98761.25;8350440;28;20258;-66
2022/02/23 16:26:35;;;;;;;9.00;3.10;;;;;;;14.41;34.43;98756.72;8350117;28;20247;-68
2022/02/23 16:30:38;;;;;;;8.97;2.60;;;;;;;14.31;34.69;98757.22;8350634;28;20429;-68
2022/02/23 16:34:42;;;;;;;12.63;3.50;;;;;;;14.25;34.37;98753.13;8350812;28;20247;-69
2022/02/23 16:38:45;;;;;;;12.30;4.73;;;;;;;14.19;34.39;98743.00;8350349;28;20243;-68
2022/02/23 16:42:48;;;;;;;15.27;4.50;;;;;;;14.05;36.64;98752.31;8350409;28;20243;-67
2022/02/23 16:46:51;;;;;;;12.57;5.00;;;;;;;14.02;35.91;98754.19;8350320;28;20419;-68
2022/02/23 16:50:55;;;;;;;11.37;5.40;;;;;;;13.98;36.52;98757.84;8350451;28;20242;-68
2022/02/23 16:54:58;;;;;;;16.17;5.83;;;;;;;13.90;37.31;98755.59;8350826;28;20255;-68
2022/02/23 16:59:02;;;;;;;17.93;5.50;;;;;;;13.77;37.97;98750.09;8350468;28;20232;-69
2022/02/23 17:03:08;;;;;;;13.83;5.80;;;;;;;13.58;38.60;98750.06;8350026;28;20236;-68
2022/02/23 17:07:12;;;;;;;11.73;6.53;;;;;;;13.53;39.93;98752.03;8350260;28;20232;-68
2022/02/23 17:11:15;;;;;;;16.10;7.60;;;;;;;13.29;40.27;98748.72;8350072;28;20228;-68
2022/02/23 17:15:19;;;;;;;12.87;7.47;;;;;;;13.22;39.41;98736.88;8349655;28;20239;-69
2022/02/23 17:19:22;;;;;;;15.23;7.63;;;;;;;13.14;39.51;98736.38;8349606;28;20247;-68
2022/02/23 17:23:28;;;;;;;13.63;8.00;;;;;;;12.87;39.44;98726.19;8349326;28;20238;-67
2022/02/23 17:27:31;;;;;;;15.47;8.03;;;;;;;12.93;39.66;98728.56;8348605;28;20220;-68
2022/02/23 17:31:34;;;;;;;12.57;6.63;;;;;;;12.82;40.39;98722.97;8349172;28;20351;-67
2022/02/23 17:35:41;;;;;;;13.60;7.57;;;;;;;12.68;39.83;98713.13;8349091;28;20239;-67
2022/02/23 17:39:46;;;;;;;16.17;10.03;;;;;;;12.75;40.05;98704.16;8348798;28;20236;-66
2022/02/23 17:43:49;;;;;;;19.03;11.50;;;;;;;12.65;40.99;98703.69;8349040;28;20247;-67
2022/02/23 17:47:52;;;;;;;16.30;12.47;;;;;;;12.50;40.93;98697.38;8349046;28;20414;-68
2022/02/23 17:51:55;;;;;;;15.57;10.13;;;;;;;12.40;41.17;98695.22;8348503;28;20420;-68
2022/02/23 17:56:00;;;;;;;23.23;12.93;;;;;;;12.39;41.23;98694.34;8348121;28;20232;-66
2022/02/23 18:00:05;;;;;;;18.77;11.63;;;;;;;12.35;41.28;98687.59;8346018;28;20236;-67
2022/02/23 18:04:08;;;;;;;20.30;14.00;;;;;;;12.23;42.59;98691.53;8348362;28;20243;-67
2022/02/23 18:08:11;;;;;;;26.97;21.03;;;;;;;12.13;41.81;98690.22;8348226;28;20228;-66
2022/02/23 18:12:15;;;;;;;27.97;19.03;;;;;;;11.96;42.49;98685.66;8348455;28;20227;-66
2022/02/23 18:16:19;;;;;;;29.53;17.70;;;;;;;11.90;42.60;98681.56;8347651;28;20515;-67
2022/02/23 18:20:22;;;;;;;30.90;20.93;;;;;;;11.80;42.70;98674.97;8348327;28;20331;-66
2022/02/23 18:24:25;;;;;;;35.00;26.70;;;;;;;11.70;43.02;98676.25;8348180;28;20232;-66
2022/02/23 18:28:30;;;;;;;29.57;22.73;;;;;;;11.55;42.97;98667.28;8348014;28;20232;-65
2022/02/23 18:32:33;;;;;;;36.37;26.60;;;;;;;11.47;43.80;98664.13;8346823;28;20534;-67
2022/02/23 18:36:36;;;;;;;26.70;18.43;;;;;;;11.37;43.98;98667.97;8348028;28;20240;-66
2022/02/23 18:40:39;;;;;;;27.03;18.40;;;;;;;11.22;43.75;98659.84;8346483;28;20228;-66
2022/02/23 18:44:49;;;;;;;30.37;20.10;;;;;;;11.24;43.58;98652.84;8347895;28;20240;-66
2022/02/23 18:48:52;;;;;;;30.67;21.10;;;;;;;11.19;43.74;98652.16;8347438;28;20240;-66
2022/02/23 18:52:55;;;;;;;27.70;20.07;;;;;;;10.88;44.14;98640.28;8347093;28;20228;-66
2022/02/23 18:56:58;;;;;;;31.83;22.93;;;;;;;11.04;44.20;98635.44;8346799;28;20227;-66
2022/02/23 19:01:03;;;;;;;34.87;24.43;;;;;;;11.03;44.50;98633.72;8346579;28;20246;-66
2022/02/23 19:05:26;;;;;;;29.50;21.73;;;;;;;10.92;44.76;98628.91;8346685;28;20554;-65
2022/02/23 19:09:30;;;;;;;29.20;15.40;;;;;;;12.75;57.56;98613.19;8345670;28;20568;-65
2022/02/23 19:13:33;;;;;;;35.13;23.40;;;;;;;12.40;42.85;98609.50;8346361;28;20244;-66